Time;durP1;ratioP1;P1;durP2;ratioP2;P2;SDS_P1;SDS_P2;PMS_P1;PMS_P2;Temp;Humidity;BMP_temperature;BMP_pressure;BME280_temperature;BME280_humidity;BME280_pressure;Samples;Min_cycle;Max_cycle;Signal;HPM_P1;HPM_P2
2022/10/22 00:01:56;;;;;;;8.35;4.50;;;11.90;99.90;;;;;;5055110;28;20089;-61
2022/10/22 00:04:22;;;;;;;7.18;4.38;;;11.90;99.90;;;;;;5054521;28;20116;-61
2022/10/22 00:06:47;;;;;;;7.18;4.30;;;11.80;99.90;;;;;;5054250;28;20078;-61
2022/10/22 00:09:14;;;;;;;6.70;4.13;;;11.80;99.90;;;;;;5054739;28;20082;-59
2022/10/22 00:11:41;;;;;;;7.53;3.97;;;11.80;99.90;;;;;;5054997;28;20071;-61
2022/10/22 00:14:06;;;;;;;7.68;4.35;;;11.70;99.90;;;;;;5054449;28;20025;-60
2022/10/22 00:16:32;;;;;;;10.02;4.90;;;11.70;99.90;;;;;;5054425;28;20021;-61
2022/10/22 00:18:57;;;;;;;8.07;4.25;;;11.70;99.90;;;;;;5054262;28;20021;-60
2022/10/22 00:21:24;;;;;;;9.15;4.70;;;11.60;99.90;;;;;;5054558;28;20374;-60
2022/10/22 00:23:50;;;;;;;7.10;4.18;;;11.60;99.90;;;;;;5054715;28;20040;-60
2022/10/22 00:26:15;;;;;;;7.35;3.90;;;11.60;99.90;;;;;;5053712;28;20498;-60
2022/10/22 00:28:41;;;;;;;8.35;4.35;;;11.60;99.90;;;;;;5054890;28;20021;-59
2022/10/22 00:31:07;;;;;;;8.07;4.15;;;11.60;99.90;;;;;;5054725;28;20024;-59
2022/10/22 00:33:33;;;;;;;5.78;3.47;;;11.60;99.90;;;;;;5053652;28;20036;-59
2022/10/22 00:35:58;;;;;;;6.40;3.80;;;11.50;99.90;;;;;;5054436;28;20112;-61
2022/10/22 00:38:24;;;;;;;6.07;3.85;;;11.50;99.90;;;;;;5054061;28;20108;-60
2022/10/22 00:40:50;;;;;;;6.53;4.13;;;11.50;99.90;;;;;;5053560;28;20115;-60
2022/10/22 00:43:17;;;;;;;5.80;3.80;;;11.50;99.90;;;;;;5053904;28;20750;-60
2022/10/22 00:45:43;;;;;;;7.07;4.03;;;11.50;99.90;;;;;;5054316;28;20104;-61
2022/10/22 00:48:20;;;;;;;5.93;3.53;;;11.50;99.90;;;;;;5053401;28;20382;-60
2022/10/22 00:50:55;;;;;;;7.13;3.35;;;11.40;99.90;;;;;;5054308;28;20017;-60
2022/10/22 00:53:54;;;;;;;7.38;4.00;;;11.40;99.90;;;;;;5053868;28;20017;-62
2022/10/22 00:56:21;;;;;;;6.40;3.53;;;11.40;99.90;;;;;;5049378;28;20122;-61
2022/10/22 00:58:51;;;;;;;6.32;4.03;;;11.30;99.90;;;;;;5054031;28;20505;-62
2022/10/22 01:01:20;;;;;;;5.97;3.50;;;11.30;99.90;;;;;;5052003;28;20029;-60
2022/10/22 01:03:46;;;;;;;6.55;3.78;;;11.30;99.90;;;;;;5054006;28;20033;-60
2022/10/22 01:06:29;;;;;;;6.70;4.00;;;11.30;99.90;;;;;;5053781;28;20100;-61
2022/10/22 01:09:24;;;;;;;5.82;3.67;;;11.30;99.90;;;;;;5053375;28;20025;-60
2022/10/22 01:11:49;;;;;;;7.68;3.90;;;11.40;99.90;;;;;;5050738;28;20041;-61
2022/10/22 01:14:18;;;;;;;7.63;4.40;;;11.50;99.90;;;;;;5053170;28;20543;-60
2022/10/22 01:16:52;;;;;;;7.40;4.22;;;11.50;99.90;;;;;;5053078;28;20060;-61
2022/10/22 01:19:52;;;;;;;6.15;3.55;;;11.50;99.90;;;;;;5053565;28;20041;-60
2022/10/22 01:22:24;;;;;;;6.75;4.20;;;11.50;99.90;;;;;;5052566;28;20430;-61
2022/10/22 01:24:55;;;;;;;5.03;3.53;;;11.50;99.90;;;;;;5053440;28;20025;-61
2022/10/22 01:27:30;;;;;;;6.85;3.60;;;11.40;99.90;;;;;;5053307;28;20032;-61
2022/10/22 01:29:55;;;;;;;7.07;3.45;;;11.40;99.90;;;;;;5052994;28;20077;-60
2022/10/22 01:32:24;;;;;;;5.30;3.60;;;11.30;99.90;;;;;;5053120;28;20044;-60
2022/10/22 01:35:03;;;;;;;5.43;3.63;;;11.30;99.90;;;;;;5053363;28;20024;-60
2022/10/22 01:37:30;;;;;;;6.45;3.90;;;11.20;99.90;;;;;;5052390;28;20485;-60
2022/10/22 01:39:59;;;;;;;5.95;3.58;;;11.20;99.90;;;;;;5053154;28;20611;-61
2022/10/22 01:42:25;;;;;;;5.82;3.20;;;11.10;99.90;;;;;;5052750;28;20108;-61
2022/10/22 01:44:50;;;;;;;6.57;3.60;;;11.20;99.90;;;;;;5052827;28;20616;-60
2022/10/22 01:47:28;;;;;;;5.15;3.15;;;11.10;99.90;;;;;;5052797;28;20025;-60
2022/10/22 01:50:13;;;;;;;6.13;3.78;;;11.10;99.90;;;;;;5053188;28;20029;-60
2022/10/22 01:52:56;;;;;;;6.63;3.42;;;11.20;99.90;;;;;;5052460;28;20025;-60
2022/10/22 01:55:41;;;;;;;9.18;3.97;;;11.20;99.90;;;;;;5052645;28;20050;-60
2022/10/22 01:58:29;;;;;;;7.70;4.30;;;11.20;99.90;;;;;;5052389;28;20025;-60
2022/10/22 02:01:04;;;;;;;8.18;4.55;;;11.10;99.90;;;;;;5052685;28;20029;-61
2022/10/22 02:03:45;;;;;;;6.97;4.47;;;11.20;99.90;;;;;;5052521;28;20056;-60
2022/10/22 02:06:18;;;;;;;9.45;5.05;;;11.30;99.90;;;;;;5052184;28;20092;-61
2022/10/22 02:08:45;;;;;;;13.00;5.60;;;11.40;99.90;;;;;;5052703;28;20021;-61
2022/10/22 02:11:12;;;;;;;12.15;5.63;;;11.40;99.90;;;;;;5052735;28;20054;-60
2022/10/22 02:13:49;;;;;;;8.85;5.75;;;11.50;99.90;;;;;;5052090;28;20458;-60
2022/10/22 02:16:24;;;;;;;10.82;6.60;;;11.60;99.90;;;;;;5052441;28;20482;-61
2022/10/22 02:18:53;;;;;;;9.98;6.45;;;11.60;99.90;;;;;;5051812;28;20021;-60
2022/10/22 02:21:19;;;;;;;13.32;6.97;;;11.60;99.90;;;;;;5052237;28;20025;-61
2022/10/22 02:23:45;;;;;;;13.45;7.50;;;11.60;99.90;;;;;;5052660;28;20036;-60
2022/10/22 02:26:20;;;;;;;19.70;9.35;;;11.60;99.90;;;;;;5052262;28;20013;-61
2022/10/22 02:29:02;;;;;;;18.25;9.43;;;11.70;99.90;;;;;;5052569;28;20024;-60
2022/10/22 02:31:29;;;;;;;;;;;11.60;99.90;;;;;;5052634;28;20552;-60
2022/10/22 02:34:01;;;;;;;22.35;12.35;;;11.60;99.90;;;;;;5051700;28;19909;-59
2022/10/22 02:36:27;;;;;;;24.42;14.63;;;11.60;99.90;;;;;;5052181;28;20052;-59
2022/10/22 02:38:54;;;;;;;29.83;17.42;;;11.60;99.90;;;;;;5052528;28;20029;-59
2022/10/22 02:41:20;;;;;;;31.58;17.77;;;11.60;99.90;;;;;;5051675;28;20047;-59
2022/10/22 02:43:52;;;;;;;26.73;14.85;;;11.50;99.90;;;;;;5052308;28;20399;-59
2022/10/22 02:46:18;;;;;;;19.60;11.52;;;11.50;99.90;;;;;;5052063;28;20025;-60
2022/10/22 02:48:43;;;;;;;11.82;7.57;;;11.50;99.90;;;;;;5051619;28;20029;-60
2022/10/22 02:51:09;;;;;;;10.85;6.60;;;11.50;99.90;;;;;;5052400;28;20025;-59
2022/10/22 02:53:34;;;;;;;14.02;8.50;;;11.50;99.90;;;;;;5051495;28;20087;-58
2022/10/22 02:56:00;;;;;;;12.60;7.32;;;11.50;99.90;;;;;;5052464;28;20029;-60
2022/10/22 02:58:25;;;;;;;12.02;6.75;;;11.50;99.90;;;;;;5051994;28;20112;-60
2022/10/22 03:00:51;;;;;;;10.27;5.75;;;11.50;99.90;;;;;;5051685;28;20410;-60
2022/10/22 03:03:16;;;;;;;10.20;6.03;;;11.50;99.90;;;;;;5051961;28;20053;-60
2022/10/22 03:05:42;;;;;;;9.32;5.68;;;11.50;99.90;;;;;;5055160;28;20032;-58
2022/10/22 03:08:08;;;;;;;10.25;5.72;;;11.50;99.90;;;;;;5055585;28;20026;-61
2022/10/22 03:10:33;;;;;;;10.65;6.57;;;11.50;99.90;;;;;;5056139;28;20115;-60
2022/10/22 03:12:59;;;;;;;9.02;5.25;;;11.50;99.90;;;;;;5056206;28;20103;-60
2022/10/22 03:15:24;;;;;;;9.25;5.47;;;11.50;99.90;;;;;;5055154;28;20028;-61
2022/10/22 03:17:50;;;;;;;9.02;5.20;;;11.50;99.90;;;;;;5055697;28;20027;-61
2022/10/22 03:20:16;;;;;;;8.25;5.20;;;11.40;99.90;;;;;;5055360;28;20033;-60
2022/10/22 03:22:42;;;;;;;11.05;5.20;;;11.40;99.90;;;;;;5055250;28;20021;-60
2022/10/22 03:25:12;;;;;;;8.93;5.00;;;11.40;99.90;;;;;;5055863;28;20021;-61
2022/10/22 03:27:39;;;;;;;8.43;5.43;;;11.30;99.90;;;;;;5055736;28;20083;-60
2022/10/22 03:30:06;;;;;;;10.35;5.00;;;11.30;99.90;;;;;;5055354;28;20025;-61
2022/10/22 03:32:31;;;;;;;7.22;4.97;;;11.30;99.90;;;;;;5055526;28;20481;-60
2022/10/22 03:34:57;;;;;;;10.55;4.90;;;11.20;99.90;;;;;;5053196;28;20021;-60
2022/10/22 03:37:25;;;;;;;8.07;5.00;;;11.10;99.90;;;;;;5055570;28;20049;-61
2022/10/22 03:39:52;;;;;;;7.75;4.38;;;11.10;99.90;;;;;;5055541;28;20492;-60
2022/10/22 03:42:18;;;;;;;8.80;4.75;;;11.10;99.90;;;;;;5054561;28;20021;-60
2022/10/22 03:44:44;;;;;;;7.55;4.72;;;11.10;99.90;;;;;;5055680;28;20021;-61
2022/10/22 03:47:10;;;;;;;9.55;4.90;;;11.10;99.90;;;;;;5055905;28;20013;-60
2022/10/22 03:49:35;;;;;;;9.57;4.68;;;11.10;99.90;;;;;;5054460;28;20029;-61
2022/10/22 03:52:12;;;;;;;8.15;4.75;;;11.00;99.90;;;;;;5055475;28;20178;-60
2022/10/22 03:54:39;;;;;;;6.88;4.38;;;11.00;99.90;;;;;;5053997;28;20374;-60
2022/10/22 03:57:05;;;;;;;7.20;3.97;;;11.00;99.90;;;;;;5053908;28;20021;-60
2022/10/22 03:59:39;;;;;;;10.20;5.32;;;10.90;99.90;;;;;;5055044;28;20477;-60
2022/10/22 04:02:05;;;;;;;7.85;4.90;;;10.90;99.90;;;;;;5053435;28;20033;-60
2022/10/22 04:04:31;;;;;;;8.10;4.50;;;10.90;99.90;;;;;;5052889;28;20116;-60
2022/10/22 04:06:56;;;;;;;8.20;5.60;;;10.90;99.90;;;;;;5054989;28;20152;-60
2022/10/22 04:09:22;;;;;;;7.93;4.45;;;10.80;99.90;;;;;;5053797;28;20033;-60
2022/10/22 04:11:48;;;;;;;7.47;5.00;;;10.80;99.90;;;;;;5053845;28;20017;-60
2022/10/22 04:14:13;;;;;;;7.97;4.97;;;10.80;99.90;;;;;;5053674;28;20035;-60
2022/10/22 04:16:41;;;;;;;7.72;4.63;;;10.80;99.90;;;;;;5053859;28;20025;-60
2022/10/22 04:19:07;;;;;;;8.27;4.72;;;10.80;99.90;;;;;;5054848;28;20373;-60
2022/10/22 04:21:33;;;;;;;8.77;5.10;;;10.80;99.90;;;;;;5054394;28;20026;-60
2022/10/22 04:23:59;;;;;;;6.93;4.28;;;10.70;99.90;;;;;;5052965;28;20168;-60
2022/10/22 04:26:24;;;;;;;6.53;3.90;;;10.70;99.90;;;;;;5054606;28;20010;-61
2022/10/22 04:28:51;;;;;;;7.53;4.68;;;10.70;99.90;;;;;;5054999;28;20040;-60
2022/10/22 04:31:20;;;;;;;8.75;5.10;;;10.70;99.90;;;;;;5054011;28;20025;-63
2022/10/22 04:33:46;;;;;;;9.80;4.82;;;10.70;99.90;;;;;;5053774;28;20044;-60
2022/10/22 04:36:17;;;;;;;10.73;5.15;;;10.70;99.90;;;;;;5054800;28;20025;-61
2022/10/22 04:38:45;;;;;;;11.95;5.38;;;10.80;99.90;;;;;;5054022;28;20031;-61
2022/10/22 04:41:12;;;;;;;13.35;6.82;;;10.90;99.90;;;;;;5054547;28;20032;-61
2022/10/22 04:43:38;;;;;;;26.83;11.40;;;10.90;99.90;;;;;;5054097;28;20041;-60
2022/10/22 04:46:04;;;;;;;29.65;14.30;;;11.00;99.90;;;;;;5051595;28;20029;-60
2022/10/22 04:48:30;;;;;;;34.50;16.50;;;11.00;99.90;;;;;;5053739;28;20159;-60
2022/10/22 04:50:57;;;;;;;35.15;16.58;;;11.00;99.90;;;;;;5053655;28;20100;-60
2022/10/22 04:53:23;;;;;;;42.33;21.77;;;11.00;99.90;;;;;;5049322;28;20499;-61
2022/10/22 04:55:49;;;;;;;43.33;22.95;;;11.10;99.90;;;;;;5036258;28;20040;-60
2022/10/22 04:58:14;;;;;;;44.47;25.75;;;11.10;99.90;;;;;;5051952;28;20081;-59
2022/10/22 05:00:40;;;;;;;52.30;28.10;;;11.10;99.90;;;;;;5053084;28;20032;-59
2022/10/22 05:03:06;;;;;;;45.22;25.38;;;11.10;99.90;;;;;;5052954;28;20021;-60
2022/10/22 05:05:31;;;;;;;42.88;24.33;;;11.10;99.90;;;;;;5051934;28;20474;-60
2022/10/22 05:07:57;;;;;;;43.85;22.83;;;11.10;99.90;;;;;;5052993;28;20027;-60
2022/10/22 05:10:22;;;;;;;37.58;20.42;;;11.10;99.90;;;;;;5053175;28;20044;-59
2022/10/22 05:12:48;;;;;;;38.53;20.70;;;11.10;99.90;;;;;;5052231;28;20017;-60
2022/10/22 05:15:14;;;;;;;42.95;22.67;;;11.10;99.90;;;;;;5052687;28;20025;-61
2022/10/22 05:17:39;;;;;;;41.92;23.85;;;11.20;99.90;;;;;;5053525;28;20055;-60
2022/10/22 05:20:05;;;;;;;51.63;29.60;;;11.10;99.90;;;;;;5052211;28;20025;-60
2022/10/22 05:22:33;;;;;;;48.05;26.85;;;11.10;99.90;;;;;;5051847;28;20051;-60
2022/10/22 05:24:59;;;;;;;53.72;30.02;;;11.10;99.90;;;;;;5050744;28;20227;-60
2022/10/22 05:27:24;;;;;;;58.50;35.17;;;11.10;99.90;;;;;;5051638;28;20052;-60
2022/10/22 05:29:50;;;;;;;46.85;26.58;;;11.10;99.90;;;;;;5051447;28;20380;-61
2022/10/22 05:32:16;;;;;;;39.00;23.10;;;11.10;99.90;;;;;;5052138;28;20028;-61
2022/10/22 05:34:41;;;;;;;37.08;20.20;;;11.10;99.90;;;;;;5052765;28;20477;-60
2022/10/22 05:37:07;;;;;;;42.38;22.30;;;11.20;99.90;;;;;;5053665;28;20044;-63
2022/10/22 05:39:35;;;;;;;37.30;23.00;;;11.20;99.90;;;;;;5053370;28;20025;-60
2022/10/22 05:42:02;;;;;;;37.85;23.40;;;11.20;99.90;;;;;;5048656;28;20106;-61
2022/10/22 05:44:27;;;;;;;30.83;18.00;;;11.20;99.90;;;;;;5049029;28;20458;-61
2022/10/22 05:46:53;;;;;;;54.25;29.73;;;11.20;99.90;;;;;;5042659;28;20029;-60
2022/10/22 05:49:18;;;;;;;51.55;28.23;;;11.30;99.90;;;;;;5052075;28;20112;-59
2022/10/22 05:51:44;;;;;;;41.53;23.17;;;11.30;99.90;;;;;;5053130;28;20025;-59
2022/10/22 05:54:28;;;;;;;45.83;24.73;;;11.30;99.90;;;;;;5053357;28;20033;-60
2022/10/22 05:56:54;;;;;;;46.72;27.70;;;11.30;99.90;;;;;;5052400;28;20025;-59
2022/10/22 05:59:20;;;;;;;34.20;22.85;;;11.30;99.90;;;;;;5052703;28;20104;-60
2022/10/22 06:01:45;;;;;;;32.10;19.63;;;11.40;99.90;;;;;;5052429;28;20109;-60
2022/10/22 06:04:12;;;;;;;30.08;16.42;;;11.40;99.90;;;;;;5052728;28;20477;-60
2022/10/22 06:06:46;;;;;;;29.48;16.45;;;11.40;99.90;;;;;;5052753;28;20071;-60
2022/10/22 06:09:22;;;;;;;29.58;14.73;;;11.40;99.90;;;;;;5052188;28;20025;-59
2022/10/22 06:11:48;;;;;;;25.33;15.23;;;11.30;99.90;;;;;;5053094;28;20025;-60
2022/10/22 06:14:14;;;;;;;21.20;12.00;;;11.30;99.90;;;;;;5052977;28;20021;-60
2022/10/22 06:16:40;;;;;;;21.35;12.93;;;11.40;99.90;;;;;;5052148;28;20071;-60
2022/10/22 06:19:07;;;;;;;26.65;15.18;;;11.40;99.90;;;;;;5053101;28;20029;-60
2022/10/22 06:21:32;;;;;;;20.67;11.95;;;11.40;99.90;;;;;;5052348;28;20040;-60
2022/10/22 06:23:59;;;;;;;22.25;12.20;;;11.40;99.90;;;;;;5052108;28;20033;-60
2022/10/22 06:26:25;;;;;;;25.45;13.90;;;11.40;99.90;;;;;;5052649;28;20021;-60
2022/10/22 06:28:51;;;;;;;35.55;16.20;;;11.30;99.90;;;;;;5052711;28;20032;-62
2022/10/22 06:31:17;;;;;;;34.78;16.50;;;11.40;99.90;;;;;;5051632;28;20025;-60
2022/10/22 06:33:43;;;;;;;23.40;13.38;;;11.40;99.90;;;;;;5052877;28;20039;-60
2022/10/22 06:36:11;;;;;;;25.63;14.48;;;11.40;99.90;;;;;;5052826;28;20029;-59
2022/10/22 06:38:37;;;;;;;22.67;13.55;;;11.50;99.90;;;;;;5051405;28;20492;-60
2022/10/22 06:41:08;;;;;;;29.60;14.55;;;11.60;99.90;;;;;;5052432;28;20100;-60
2022/10/22 06:43:33;;;;;;;34.55;18.80;;;11.70;99.90;;;;;;5051956;28;20270;-61
2022/10/22 06:46:01;;;;;;;28.92;17.10;;;11.80;99.90;;;;;;5051663;28;20078;-60
2022/10/22 06:48:27;;;;;;;39.42;20.20;;;12.00;99.90;;;;;;5052004;28;20377;-61
2022/10/22 06:50:53;;;;;;;34.42;18.38;;;12.00;99.90;;;;;;5051896;28;20043;-62
2022/10/22 06:53:19;;;;;;;32.13;19.75;;;12.20;99.90;;;;;;5052163;28;20497;-60
2022/10/22 06:55:44;;;;;;;35.42;20.25;;;12.20;99.90;;;;;;5052458;28;20111;-61
2022/10/22 06:58:10;;;;;;;35.10;20.48;;;12.30;99.90;;;;;;5051697;28;20079;-61
2022/10/22 07:00:35;;;;;;;41.67;23.40;;;12.30;99.90;;;;;;5051920;28;20477;-60
2022/10/22 07:03:01;;;;;;;32.95;21.42;;;12.30;99.90;;;;;;5052474;28;20033;-59
2022/10/22 07:05:26;;;;;;;33.25;20.02;;;12.20;99.90;;;;;;5051522;28;20033;-59
2022/10/22 07:07:52;;;;;;;29.70;17.60;;;12.20;99.90;;;;;;5052159;28;20021;-59
2022/10/22 07:10:17;;;;;;;35.80;22.35;;;12.20;99.90;;;;;;5051858;28;20048;-59
2022/10/22 07:12:43;;;;;;;40.25;22.38;;;12.10;99.90;;;;;;5051448;28;20410;-59
2022/10/22 07:15:09;;;;;;;36.75;22.00;;;12.10;99.90;;;;;;5052190;28;20040;-59
2022/10/22 07:17:35;;;;;;;39.72;25.02;;;12.00;99.90;;;;;;5051441;28;20017;-60
2022/10/22 07:20:00;;;;;;;40.00;22.58;;;12.00;99.90;;;;;;5051568;28;20481;-59
2022/10/22 07:22:26;;;;;;;36.55;22.30;;;12.00;99.90;;;;;;5051625;28;20101;-59
2022/10/22 07:24:51;;;;;;;44.75;27.38;;;12.00;99.90;;;;;;5052083;28;20068;-59
2022/10/22 07:27:17;;;;;;;41.10;24.88;;;12.10;99.90;;;;;;5050871;28;20496;-59
2022/10/22 07:29:42;;;;;;;40.97;23.00;;;12.10;99.90;;;;;;5052050;28;20090;-59
2022/10/22 07:32:08;;;;;;;34.42;22.05;;;12.20;99.90;;;;;;5051890;28;20024;-59
2022/10/22 07:34:33;;;;;;;37.65;23.52;;;12.30;99.90;;;;;;5050975;28;20049;-59
2022/10/22 07:36:59;;;;;;;42.00;25.52;;;12.40;99.90;;;;;;5051678;28;20037;-59
2022/10/22 07:39:25;;;;;;;40.20;25.80;;;12.40;99.90;;;;;;5051828;28;20471;-59
2022/10/22 07:41:51;;;;;;;35.25;21.77;;;12.50;99.90;;;;;;5051334;28;20029;-59
2022/10/22 07:44:16;;;;;;;45.20;28.45;;;12.60;99.90;;;;;;5051188;28;20045;-60
2022/10/22 07:46:42;;;;;;;42.33;26.05;;;12.70;99.90;;;;;;5051558;28;20021;-60
2022/10/22 07:49:07;;;;;;;44.58;26.63;;;12.80;99.90;;;;;;5051005;28;20013;-60
2022/10/22 07:51:33;;;;;;;42.75;26.23;;;12.90;99.90;;;;;;5054023;28;20425;-59
2022/10/22 07:53:58;;;;;;;49.95;29.58;;;13.10;99.90;;;;;;5055329;28;20071;-59
2022/10/22 07:56:24;;;;;;;35.35;21.17;;;13.20;99.90;;;;;;5054054;28;20022;-59
2022/10/22 07:58:50;;;;;;;25.92;14.48;;;13.20;99.90;;;;;;5055243;28;20104;-59
2022/10/22 08:01:15;;;;;;;23.25;12.52;;;13.30;99.90;;;;;;5054194;28;20025;-59
2022/10/22 08:03:41;;;;;;;19.55;12.00;;;13.40;99.90;;;;;;5055057;28;20446;-60
2022/10/22 08:06:09;;;;;;;16.00;7.43;;;13.50;99.90;;;;;;5055017;28;20025;-61
2022/10/22 08:08:34;;;;;;;15.18;6.47;;;13.60;99.90;;;;;;5054147;28;20059;-59
2022/10/22 08:11:00;;;;;;;12.57;5.65;;;13.70;99.90;;;;;;5054727;28;20444;-60
2022/10/22 08:13:28;;;;;;;13.90;6.05;;;13.80;99.90;;;;;;5054693;28;20013;-60
2022/10/22 08:15:54;;;;;;;18.02;7.10;;;13.90;99.90;;;;;;5054215;28;20472;-59
2022/10/22 08:18:20;;;;;;;12.80;5.22;;;13.90;99.90;;;;;;5054548;28;20104;-60
2022/10/22 08:20:45;;;;;;;11.40;5.65;;;13.90;99.90;;;;;;5053484;28;20033;-59
2022/10/22 08:23:11;;;;;;;9.82;4.97;;;13.90;99.90;;;;;;5054318;28;20125;-59
2022/10/22 08:25:36;;;;;;;9.82;4.95;;;13.90;99.90;;;;;;5054338;28;20017;-60
2022/10/22 08:28:02;;;;;;;10.80;4.70;;;13.90;99.90;;;;;;5054569;28;20025;-60
2022/10/22 08:30:28;;;;;;;8.10;3.55;;;13.90;99.90;;;;;;5053724;28;20055;-59
2022/10/22 08:32:54;;;;;;;8.80;3.90;;;13.90;99.90;;;;;;5054597;28;20066;-59
2022/10/22 08:35:20;;;;;;;12.90;4.32;;;14.00;99.90;;;;;;5054057;28;20032;-59
2022/10/22 08:37:46;;;;;;;9.50;3.88;;;14.10;99.90;;;;;;5053995;28;20124;-60
2022/10/22 08:40:34;;;;;;;9.07;3.65;;;14.30;99.90;;;;;;5054484;28;20025;-60
2022/10/22 08:43:08;;;;;;;8.77;3.67;;;14.40;99.90;;;;;;5054261;28;20071;-60
2022/10/22 08:45:49;;;;;;;8.13;3.53;;;14.60;99.90;;;;;;5053746;28;20437;-60
2022/10/22 08:48:40;;;;;;;6.25;3.35;;;14.70;99.90;;;;;;5054531;28;20033;-60
2022/10/22 08:51:13;;;;;;;5.78;3.13;;;14.80;99.90;;;;;;5053923;28;20032;-61
2022/10/22 08:53:55;;;;;;;9.07;3.25;;;15.00;99.90;;;;;;5054882;28;20021;-60
2022/10/22 08:56:22;;;;;;;6.43;2.72;;;15.20;99.90;;;;;;5053709;28;20112;-61
2022/10/22 08:59:16;;;;;;;12.93;3.88;;;15.30;99.90;;;;;;5053669;28;20025;-61
2022/10/22 09:01:45;;;;;;;8.05;2.67;;;15.40;99.90;;;;;;5051549;28;20048;-60
2022/10/22 09:04:20;;;;;;;6.32;3.05;;;15.50;99.90;;;;;;5054208;28;20033;-61
2022/10/22 09:06:47;;;;;;;13.10;3.45;;;15.60;99.90;;;;;;5053345;28;20096;-60
2022/10/22 09:09:17;;;;;;;11.48;3.08;;;15.70;99.90;;;;;;5053832;28;20024;-60
2022/10/22 09:11:49;;;;;;;8.55;3.22;;;15.80;99.90;;;;;;5053570;28;20477;-61
2022/10/22 09:14:20;;;;;;;9.20;3.10;;;15.90;99.90;;;;;;5053548;28;20021;-60
2022/10/22 09:17:05;;;;;;;;;;;15.90;99.90;;;;;;5054207;28;20029;-60
2022/10/22 09:20:01;;;;;;;7.07;2.47;;;16.00;99.90;;;;;;5052674;28;20208;-60
2022/10/22 09:22:41;;;;;;;8.25;2.90;;;16.10;99.90;;;;;;5053337;28;20488;-59
2022/10/22 09:25:19;;;;;;;10.25;3.10;;;16.10;99.90;;;;;;5052181;28;20025;-59
2022/10/22 09:27:45;;;;;;;6.30;3.03;;;16.10;99.90;;;;;;5048616;28;20382;-61
2022/10/22 09:30:22;;;;;;;5.53;2.58;;;16.20;99.90;;;;;;5052313;28;20021;-61
2022/10/22 09:32:59;;;;;;;8.10;3.10;;;16.20;99.90;;;;;;5051745;28;20038;-59
2022/10/22 09:35:25;;;;;;;6.88;2.92;;;16.30;99.90;;;;;;5052937;28;20438;-60
2022/10/22 09:37:54;;;;;;;4.65;2.20;;;16.40;99.90;;;;;;5053063;28;20104;-60
2022/10/22 09:40:21;;;;;;;11.10;2.83;;;16.40;99.90;;;;;;5050305;28;20036;-60
2022/10/22 09:42:46;;;;;;;8.55;2.30;;;16.40;99.90;;;;;;5051789;28;20064;-60
2022/10/22 09:45:23;;;;;;;6.43;2.50;;;16.30;99.90;;;;;;5052945;28;20430;-59
2022/10/22 09:47:49;;;;;;;6.82;2.38;;;16.20;99.90;;;;;;5051502;28;20058;-60
2022/10/22 09:50:47;;;;;;;7.85;2.50;;;16.20;99.90;;;;;;5051229;28;20025;-59
2022/10/22 09:53:28;;;;;;;6.78;2.40;;;16.30;99.90;;;;;;5039577;28;20068;-59
2022/10/22 09:55:59;;;;;;;5.47;2.28;;;16.40;99.90;;;;;;5051473;28;20075;-60
2022/10/22 09:58:26;;;;;;;8.32;2.30;;;16.40;99.90;;;;;;5051644;28;20032;-60
2022/10/22 10:00:58;;;;;;;6.45;2.42;;;16.40;99.90;;;;;;5050924;28;20075;-60
2022/10/22 10:03:29;;;;;;;7.40;2.40;;;16.40;99.90;;;;;;5052264;28;20055;-59
2022/10/22 10:05:58;;;;;;;5.80;2.47;;;16.40;99.90;;;;;;5053081;28;20028;-60
2022/10/22 10:08:24;;;;;;;8.93;2.97;;;16.40;99.90;;;;;;5051694;28;20021;-59
2022/10/22 10:11:13;;;;;;;8.40;3.17;;;16.30;99.90;;;;;;5051590;28;20116;-60
2022/10/22 10:13:52;;;;;;;8.48;2.65;;;16.20;99.90;;;;;;5051884;28;20033;-60
2022/10/22 10:16:45;;;;;;;8.73;3.10;;;16.10;99.90;;;;;;5050702;28;20143;-60
2022/10/22 10:19:27;;;;;;;8.75;3.42;;;16.10;99.90;;;;;;5045150;28;20420;-59
2022/10/22 10:22:23;;;;;;;7.07;2.90;;;16.10;99.90;;;;;;5050011;28;20036;-60
2022/10/22 10:25:02;;;;;;;8.93;3.10;;;16.20;99.90;;;;;;5052791;28;20362;-61
2022/10/22 10:27:51;;;;;;;9.82;2.85;;;16.30;99.90;;;;;;5051905;28;20027;-60
2022/10/22 10:30:20;;;;;;;9.93;2.78;;;16.40;99.90;;;;;;5050035;28;20123;-61
2022/10/22 10:33:04;;;;;;;9.82;2.85;;;16.50;99.90;;;;;;5050344;28;20029;-60
2022/10/22 10:36:01;;;;;;;6.13;2.70;;;16.60;99.90;;;;;;5051478;28;20061;-61
2022/10/22 10:38:54;;;;;;;11.82;3.00;;;16.80;99.90;;;;;;5050939;28;20056;-62
2022/10/22 10:41:38;;;;;;;6.65;2.72;;;17.00;99.90;;;;;;5051149;28;20182;-61
2022/10/22 10:44:36;;;;;;;7.05;3.13;;;17.00;99.90;;;;;;5051599;28;20052;-60
2022/10/22 10:47:20;;;;;;;6.38;3.03;;;17.00;99.90;;;;;;5051422;28;20036;-60
2022/10/22 10:49:47;;;;;;;5.30;2.42;;;17.10;99.90;;;;;;5052083;28;20108;-62
2022/10/22 10:52:23;;;;;;;7.88;3.30;;;17.20;99.90;;;;;;5050651;28;20104;-62
2022/10/22 10:55:00;;;;;;;7.47;2.92;;;17.20;99.90;;;;;;5051329;28;20029;-60
2022/10/22 10:57:45;;;;;;;6.53;2.85;;;17.30;99.90;;;;;;5050035;28;20090;-63
2022/10/22 11:00:19;;;;;;;8.68;2.75;;;17.30;99.90;;;;;;5032082;28;20028;-61
2022/10/22 11:03:02;;;;;;;6.88;3.22;;;17.50;99.90;;;;;;5050349;28;20039;-61
2022/10/22 11:05:51;;;;;;;6.30;2.80;;;17.50;99.90;;;;;;5051024;28;20033;-61
2022/10/22 11:08:27;;;;;;;10.05;3.47;;;17.50;99.90;;;;;;5051716;28;20543;-61
2022/10/22 11:11:06;;;;;;;7.60;3.25;;;17.50;99.90;;;;;;5051612;28;20029;-61
2022/10/22 11:14:09;;;;;;;5.80;2.92;;;17.50;99.90;;;;;;5050423;28;20370;-62
2022/10/22 11:17:29;;;;;;;11.68;3.85;;;17.60;99.90;;;;;;5051608;28;20389;-61
2022/10/22 11:20:19;;;;;;;9.43;3.30;;;17.70;99.90;;;;;;5029200;28;20037;-62
2022/10/22 11:22:54;;;;;;;5.78;2.65;;;17.60;99.90;;;;;;5051123;28;20040;-61
2022/10/22 11:25:21;;;;;;;7.70;2.85;;;17.50;99.90;;;;;;5051809;28;20055;-60
2022/10/22 11:28:04;;;;;;;6.35;3.22;;;17.50;99.90;;;;;;5056302;28;20107;-62
2022/10/22 11:30:36;;;;;;;7.05;2.92;;;17.60;99.90;;;;;;5052396;28;20041;-60
2022/10/22 11:33:06;;;;;;;9.20;3.15;;;17.60;99.90;;;;;;5055333;28;20021;-61
2022/10/22 11:35:34;;;;;;;9.02;2.92;;;17.60;99.90;;;;;;5054447;28;20053;-61
2022/10/22 11:38:03;;;;;;;10.60;3.63;;;17.70;99.90;;;;;;5054322;28;20029;-60
2022/10/22 11:40:34;;;;;;;5.32;2.83;;;17.80;99.90;;;;;;5054277;28;20056;-61
2022/10/22 11:43:10;;;;;;;;;;;17.90;99.90;;;;;;5055574;28;20045;-61
2022/10/22 11:45:41;;;;;;;10.23;2.90;;;18.00;99.90;;;;;;5055252;28;20285;-61
2022/10/22 11:48:10;;;;;;;6.55;2.83;;;18.10;99.90;;;;;;5054632;28;20021;-60
2022/10/22 11:50:56;;;;;;;10.60;3.35;;;18.20;99.90;;;;;;5055155;28;20024;-60
2022/10/22 11:53:24;;;;;;;7.28;2.65;;;18.30;99.90;;;;;;5054529;28;20028;-61
2022/10/22 11:56:05;;;;;;;4.80;2.38;;;18.40;99.90;;;;;;5054997;28;20032;-60
2022/10/22 11:58:40;;;;;;;6.47;2.72;;;18.50;99.90;;;;;;5054775;28;20508;-60
2022/10/22 12:01:06;;;;;;;9.75;2.60;;;18.40;99.90;;;;;;5054753;28;20052;-61
2022/10/22 12:03:31;;;;;;;8.35;2.38;;;18.40;99.90;;;;;;5052582;28;20069;-61
2022/10/22 12:06:14;;;;;;;7.22;2.47;;;18.30;99.90;;;;;;5054134;28;20436;-61
2022/10/22 12:08:48;;;;;;;8.88;2.17;;;18.20;99.90;;;;;;5034789;28;20105;-61
2022/10/22 12:11:19;;;;;;;7.53;2.30;;;18.10;99.90;;;;;;5042688;28;20028;-61
2022/10/22 12:14:09;;;;;;;7.20;1.98;;;17.90;99.90;;;;;;5054782;28;20036;-62
2022/10/22 12:16:37;;;;;;;4.95;2.10;;;17.80;99.90;;;;;;5043828;28;20474;-61
2022/10/22 12:19:16;;;;;;;5.65;1.70;;;17.80;99.90;;;;;;5054866;28;20512;-62
2022/10/22 12:21:47;;;;;;;9.45;2.13;;;17.80;99.60;;;;;;5054036;28;20021;-61
2022/10/22 12:24:18;;;;;;;8.95;2.33;;;17.70;99.30;;;;;;5054852;28;20089;-61
2022/10/22 12:26:45;;;;;;;9.98;2.05;;;17.90;99.10;;;;;;5057069;28;20492;-62
2022/10/22 12:29:13;;;;;;;5.53;1.48;;;17.90;98.90;;;;;;5053075;28;20071;-61
2022/10/22 12:31:43;;;;;;;6.88;1.83;;;18.00;98.90;;;;;;5053482;28;20025;-61
2022/10/22 12:34:13;;;;;;;7.25;2.08;;;18.00;98.80;;;;;;5054832;28;20025;-62
2022/10/22 12:36:39;;;;;;;6.28;1.83;;;18.00;98.80;;;;;;5052734;28;20041;-61
2022/10/22 12:39:17;;;;;;;5.50;1.80;;;18.00;98.30;;;;;;5052190;28;20033;-60
2022/10/22 12:41:43;;;;;;;5.55;1.80;;;17.90;98.00;;;;;;5054108;28;20029;-61
2022/10/22 12:44:14;;;;;;;4.32;1.80;;;17.80;98.10;;;;;;5053403;28;20102;-61
2022/10/22 12:46:42;;;;;;;6.45;1.80;;;17.70;98.10;;;;;;5054497;28;20036;-61
2022/10/22 12:49:18;;;;;;;7.20;1.50;;;17.70;98.40;;;;;;5053129;28;20033;-61
2022/10/22 12:51:45;;;;;;;6.30;2.08;;;17.70;98.60;;;;;;5052338;28;20043;-61
2022/10/22 12:54:26;;;;;;;4.80;1.70;;;17.60;98.70;;;;;;5054304;28;20099;-62
2022/10/22 12:56:54;;;;;;;6.22;1.90;;;17.50;99.00;;;;;;5052471;28;20402;-63
2022/10/22 12:59:35;;;;;;;5.50;1.80;;;17.50;99.30;;;;;;5053713;28;20176;-61